Aérodrome :
LOGIN :

S'inscrire | Disclaimer

   EN    FR    IT 

 










Légende :    VFR   VFR Marginal   IFR   IFR Intensif   IFR Très Intensif
Visi : 
Plafond : 
>= 8 km
>= 3000ft
5 à 8 km
1000 à 3000 ft
1500m à 5 km
500 à 1000 ft
800 à 1500m
200 à 500 ft
< 800m
< 200 ft
Symboles :   Orages  Brouillard  Fortes neiges  Fortes précipitations  Vent > 20 kt
SIGMETs :   Divers  Orages  Givrage  Turbulence  Onde Orograph.  Cendres Volcan.







- Altitude de l'aérodrome : 364 ft
- Code IATA : FRA


EDDF - Frankfurt Int.

DERNIER METAR :
  • 271320Z 19007KT 150V220 9999 VCSH FEW013 FEW025CB SCT040 18/15 Q1009 NOSIG

METARs EXPIRÉS :
  • 271250Z 20006KT 150V260 9999 FEW008 FEW015CB SCT040 18/14 Q1009 NOSIG
  • 271220Z 25008KT 210V270 6000 -SHRA FEW008 SCT015CB BKN040 16/15 Q1010 RESHRA NOSIG
  • 271150Z 19007KT 9999 -SHRA FEW011 SCT016TCU BKN023 17/14 Q1010 NOSIG
  • 271120Z 18010KT 9999 -SHRA FEW013 SCT016TCU BKN025 17/14 Q1010 NOSIG
  • 271050Z 20008KT 9999 VCSH FEW013 BKN016 BKN025 17/13 Q1010 NOSIG

TAF TAF EDDF
Valide du 27 à 12h jusqu'au 28 à 18h UTC


271100Z 2712/2818 23008KT 9999 BKN025
PROB30
TEMPO 2712/2719 SHRA BKN025TCU
BECMG 2715/2718 29005KT SCT030
BECMG 2720/2723 VRB03KT
BECMG 2804/2807 24005KT
TEMPO 2811/2818 SHRA BKN030TCU
PROB30
TEMPO 2812/2818 26015G25KT 4000 TSRAGS BKN020CB
Pas de NOTAMs connus pour ce terrain.



MET'MAP, la Météo Aéronautique d'un coup d'oeil ! - Copyright ORBIFLY Décembre 2007 - Disclaimer

ORBIFLY MET'MAP TEAM :

Programmation & Développement : Alexandra Zaïnal
Conception & Développement : Baudouin d'Aumeries
Co-Programmation & Développement : Marc-Olivier Méhu
Soutien technique & logistique : Manuel Goepfert

Contact : metmap@orbifly.com




SOURCES & CREDITS :

   NOAA